Time;durP1;ratioP1;P1;durP2;ratioP2;P2;SDS_P1;SDS_P2;PMS_P1;PMS_P2;Temp;Humidity;BMP_temperature;BMP_pressure;BME280_temperature;BME280_humidity;BME280_pressure;Samples;Min_cycle;Max_cycle;Signal;HPM_P1;HPM_P2
2024/04/07 00:00:39;;;;;;;1999.90;999.90;;;17.00;49.40;;;;;;5025201;28;20144;-82
2024/04/07 00:03:05;;;;;;;1999.90;999.90;;;17.10;49.20;;;;;;5024964;28;20193;-82
2024/04/07 00:05:31;;;;;;;;;;;17.10;48.90;;;;;;5023599;28;20029;-81
2024/04/07 00:07:57;;;;;;;1999.90;999.90;;;17.00;49.00;;;;;;5024198;28;19942;-82
2024/04/07 00:10:22;;;;;;;1999.90;999.90;;;17.10;48.90;;;;;;5019651;28;20982;-82
2024/04/07 00:12:48;;;;;;;1999.90;999.90;;;17.10;48.80;;;;;;5023933;28;20494;-82
2024/04/07 00:15:14;;;;;;;1999.90;999.90;;;17.00;48.70;;;;;;5027068;28;20057;-81
2024/04/07 00:17:39;;;;;;;1999.90;999.90;;;16.90;49.50;;;;;;5026299;28;20647;-82
2024/04/07 00:20:06;;;;;;;1999.90;999.90;;;16.80;50.20;;;;;;5023976;28;20088;-81
2024/04/07 00:22:31;;;;;;;1999.90;999.90;;;16.70;50.30;;;;;;5020024;28;20025;-82
2024/04/07 00:24:57;;;;;;;1999.90;999.90;;;16.70;50.30;;;;;;5018830;28;20029;-82
2024/04/07 00:27:23;;;;;;;1999.90;999.90;;;16.60;50.50;;;;;;5023117;28;20596;-82
2024/04/07 00:29:50;;;;;;;1999.90;999.90;;;16.60;50.20;;;;;;5022889;28;20695;-86
2024/04/07 00:32:16;;;;;;;1999.90;999.90;;;16.60;50.70;;;;;;5021905;28;20041;-85
2024/04/07 00:34:44;;;;;;;1999.90;999.90;;;16.70;50.00;;;;;;5021630;28;20475;-86
2024/04/07 00:37:10;;;;;;;1999.90;999.90;;;16.80;49.30;;;;;;5020992;28;20040;-84
2024/04/07 00:39:36;;;;;;;1999.90;999.90;;;16.90;48.60;;;;;;5021388;28;20037;-82
2024/04/07 00:42:01;;;;;;;1999.90;999.90;;;16.90;48.30;;;;;;5021612;28;20033;-85
2024/04/07 00:44:27;;;;;;;1999.90;999.90;;;16.90;47.90;;;;;;5023079;28;20033;-85
2024/04/07 00:46:53;;;;;;;1999.90;999.90;;;16.90;48.30;;;;;;5026263;28;20025;-83
2024/04/07 00:49:19;;;;;;;1999.90;999.90;;;16.80;47.90;;;;;;5021087;28;20026;-82
2024/04/07 00:51:45;;;;;;;1999.90;999.90;;;16.90;47.70;;;;;;5023794;28;20844;-87
2024/04/07 00:54:12;;;;;;;1999.90;999.90;;;16.90;47.70;;;;;;5023011;28;20037;-76
2024/04/07 00:56:38;;;;;;;1999.90;999.90;;;17.00;47.50;;;;;;5023535;28;20052;-82
2024/04/07 00:59:05;;;;;;;1999.90;999.90;;;16.90;47.60;;;;;;5020499;28;20030;-82
2024/04/07 01:01:31;;;;;;;1999.90;999.90;;;16.90;47.80;;;;;;5022698;28;20048;-80
2024/04/07 01:03:56;;;;;;;1999.90;999.90;;;16.90;48.00;;;;;;5022186;28;20034;-81
2024/04/07 01:06:22;;;;;;;1999.90;999.90;;;16.90;47.60;;;;;;5022875;28;20029;-82
2024/04/07 01:08:48;;;;;;;1999.90;999.90;;;16.80;47.90;;;;;;5022508;28;20477;-81
2024/04/07 01:11:14;;;;;;;;;;;16.90;47.50;;;;;;5023067;28;20037;-81
2024/04/07 01:13:40;;;;;;;1999.90;999.90;;;16.80;47.80;;;;;;5023169;28;19932;-81
2024/04/07 01:16:05;;;;;;;1999.90;999.90;;;16.70;47.80;;;;;;5018776;28;20029;-81
2024/04/07 01:18:31;;;;;;;1999.90;999.90;;;16.80;47.90;;;;;;5023263;28;20033;-81
2024/04/07 01:20:57;;;;;;;1999.90;999.90;;;16.90;47.60;;;;;;5022592;28;20034;-81
2024/04/07 01:23:23;;;;;;;1999.90;999.90;;;16.90;47.70;;;;;;5022045;28;20039;-80
2024/04/07 01:25:49;;;;;;;1999.90;999.90;;;16.90;47.70;;;;;;5020765;28;20370;-81
2024/04/07 01:28:15;;;;;;;1999.90;999.90;;;16.80;47.90;;;;;;5022912;28;20025;-81
2024/04/07 01:30:42;;;;;;;1999.90;999.90;;;16.80;47.80;;;;;;5024510;28;20030;-79
2024/04/07 01:33:07;;;;;;;;;;;16.80;48.00;;;;;;5014959;28;20034;-81
2024/04/07 01:35:34;;;;;;;1999.90;999.90;;;16.70;48.30;;;;;;5018001;28;19915;-80
2024/04/07 01:38:01;;;;;;;1999.90;999.90;;;16.70;48.20;;;;;;5022840;28;20037;-81
2024/04/07 01:40:27;;;;;;;1999.90;999.90;;;16.70;48.10;;;;;;5021321;28;20888;-81
2024/04/07 01:42:52;;;;;;;1999.90;999.90;;;16.60;48.30;;;;;;5022305;28;20035;-81
2024/04/07 01:45:19;;;;;;;1999.90;999.90;;;16.60;48.60;;;;;;5022363;28;20056;-82
2024/04/07 01:47:44;;;;;;;1999.90;999.90;;;16.70;48.30;;;;;;5021824;28;20041;-81
2024/04/07 01:50:10;;;;;;;1999.90;999.90;;;16.70;48.20;;;;;;5022274;28;20025;-81
2024/04/07 01:52:36;;;;;;;1999.90;999.90;;;16.60;48.30;;;;;;5021455;28;20120;-80
2024/04/07 01:55:02;;;;;;;1999.90;999.90;;;16.60;48.20;;;;;;5021802;28;20033;-81
2024/04/07 01:57:28;;;;;;;1999.90;999.90;;;16.60;48.20;;;;;;5021862;28;20120;-80
2024/04/07 01:59:55;;;;;;;1999.90;999.90;;;16.60;48.30;;;;;;5020376;28;20629;-81
2024/04/07 02:02:21;;;;;;;1999.90;999.90;;;16.60;48.20;;;;;;5021413;28;20029;-81
2024/04/07 02:04:47;;;;;;;1999.90;999.90;;;16.70;47.90;;;;;;5021998;28;20195;-81
2024/04/07 02:07:13;;;;;;;1999.90;999.90;;;16.60;48.00;;;;;;5022256;28;20037;-83
2024/04/07 02:09:39;;;;;;;1999.90;999.90;;;16.70;48.00;;;;;;5021734;28;20398;-83
2024/04/07 02:12:05;;;;;;;1999.90;999.90;;;16.60;48.00;;;;;;5021646;28;20522;-87
2024/04/07 02:14:31;;;;;;;1999.90;999.90;;;16.60;47.90;;;;;;5021633;28;20657;-84
2024/04/07 02:16:57;;;;;;;;;;;16.60;47.90;;;;;;5021121;28;20056;-84
2024/04/07 02:19:23;;;;;;;1999.90;999.90;;;16.60;48.20;;;;;;5023376;28;20001;-84
2024/04/07 02:21:49;;;;;;;1999.90;999.90;;;16.60;48.20;;;;;;5023211;28;20057;-86
2024/04/07 02:24:14;;;;;;;1999.90;999.90;;;16.70;48.00;;;;;;5019505;28;20034;-85
2024/04/07 02:26:40;;;;;;;1999.90;999.90;;;16.50;48.40;;;;;;5019370;28;20183;-83
2024/04/07 02:29:06;;;;;;;1999.90;999.90;;;16.50;48.30;;;;;;5022999;28;20224;-84
2024/04/07 02:31:33;;;;;;;1999.90;999.90;;;16.40;48.40;;;;;;5020357;28;20033;-83
2024/04/07 02:33:59;;;;;;;1999.90;999.90;;;16.40;49.50;;;;;;5020706;28;20042;-85
2024/04/07 02:36:25;;;;;;;1999.90;999.90;;;16.40;49.70;;;;;;5020596;28;20044;-85
2024/04/07 02:38:51;;;;;;;1999.90;999.90;;;16.10;51.30;;;;;;5019300;28;20029;-83
2024/04/07 02:41:16;;;;;;;1999.90;999.90;;;16.00;51.90;;;;;;5018169;28;20111;-83
2024/04/07 02:43:43;;;;;;;1999.90;999.90;;;15.90;52.60;;;;;;5019721;28;20145;-84
2024/04/07 02:48:53;;;;;;;1999.90;999.90;;;15.90;52.00;;;;;;5021028;28;20531;-84
2024/04/07 02:51:19;;;;;;;1999.90;999.90;;;16.00;51.60;;;;;;5020622;28;20104;-83
2024/04/07 02:53:44;;;;;;;1999.90;999.90;;;16.20;50.40;;;;;;5021381;28;20069;-87
2024/04/07 02:56:10;;;;;;;1999.90;999.90;;;16.30;50.30;;;;;;5020279;28;20056;-83
2024/04/07 02:58:36;;;;;;;1999.90;999.90;;;16.20;49.60;;;;;;5020462;28;20032;-83
2024/04/07 03:01:03;;;;;;;1999.90;999.90;;;16.20;49.80;;;;;;5019578;28;20041;-84
2024/04/07 03:03:29;;;;;;;1999.90;999.90;;;16.30;50.00;;;;;;5021063;28;20022;-83
2024/04/07 03:05:55;;;;;;;1999.90;999.90;;;16.30;51.50;;;;;;5020815;28;20025;-82
2024/04/07 03:08:21;;;;;;;1999.90;999.90;;;16.00;52.40;;;;;;5019541;28;20029;-84
2024/04/07 03:11:00;;;;;;;1999.90;999.90;;;16.00;52.90;;;;;;5021019;28;20041;-81
2024/04/07 03:13:26;;;;;;;1999.90;999.90;;;15.70;54.20;;;;;;5024607;28;20087;-83
2024/04/07 03:15:52;;;;;;;1999.90;999.90;;;15.60;53.90;;;;;;5025552;28;20055;-81
2024/04/07 03:18:19;;;;;;;1999.90;999.90;;;15.60;54.10;;;;;;5025809;28;20038;-84
2024/04/07 03:20:45;;;;;;;1999.90;999.90;;;15.70;53.70;;;;;;5030581;28;20017;-87
2024/04/07 03:23:11;;;;;;;1999.90;999.90;;;15.80;52.80;;;;;;5025983;28;20033;-84
2024/04/07 03:25:37;;;;;;;1999.90;999.90;;;15.80;52.20;;;;;;5025619;28;21007;-84
2024/04/07 03:28:03;;;;;;;1999.90;999.90;;;15.80;51.80;;;;;;5021670;28;20026;-85
2024/04/07 03:30:29;;;;;;;1999.90;999.90;;;15.80;52.30;;;;;;5027449;28;20048;-85
2024/04/07 03:32:55;;;;;;;1999.90;999.90;;;15.90;52.80;;;;;;5025148;28;20345;-82
2024/04/07 03:35:21;;;;;;;1999.90;999.90;;;15.80;53.50;;;;;;5023837;28;20033;-81
2024/04/07 03:37:46;;;;;;;1999.90;999.90;;;15.70;53.70;;;;;;5024116;28;20044;-83
2024/04/07 03:40:12;;;;;;;1999.90;999.90;;;15.60;54.20;;;;;;5029767;28;20104;-80
2024/04/07 03:42:38;;;;;;;1999.90;999.90;;;15.60;54.30;;;;;;5022703;28;20037;-82
2024/04/07 03:45:05;;;;;;;1999.90;999.90;;;15.60;53.70;;;;;;5023837;28;20276;-82
2024/04/07 03:47:30;;;;;;;1999.90;999.90;;;15.60;53.20;;;;;;5023956;28;20025;-81
2024/04/07 03:49:56;;;;;;;1999.90;999.90;;;15.70;53.20;;;;;;5017301;28;20626;-82
2024/04/07 03:52:22;;;;;;;1999.90;999.90;;;15.70;53.40;;;;;;5023814;28;20056;-82
2024/04/07 03:54:48;;;;;;;1999.90;999.90;;;15.70;52.90;;;;;;5023039;28;20408;-85
2024/04/07 03:57:14;;;;;;;1999.90;999.90;;;15.60;52.90;;;;;;5021112;28;20130;-84
2024/04/07 03:59:39;;;;;;;1999.90;999.90;;;15.70;53.00;;;;;;5023292;28;20065;-84
2024/04/07 04:02:07;;;;;;;1999.90;999.90;;;15.60;52.90;;;;;;5023087;28;20722;-83
2024/04/07 04:04:33;;;;;;;1999.90;999.90;;;15.60;53.20;;;;;;5022450;28;20060;-85
2024/04/07 04:06:59;;;;;;;1999.90;999.90;;;15.50;53.20;;;;;;5022353;28;20540;-85
2024/04/07 04:09:24;;;;;;;1999.90;999.90;;;15.50;53.20;;;;;;5022695;28;20030;-85
2024/04/07 04:11:50;;;;;;;1999.90;999.90;;;15.40;53.20;;;;;;5021868;28;20555;-83
2024/04/07 04:14:16;;;;;;;1999.90;999.90;;;15.40;53.40;;;;;;5019582;28;20052;-84
2024/04/07 04:16:41;;;;;;;1999.90;999.90;;;15.50;53.30;;;;;;5021653;28;20034;-83
2024/04/07 04:19:07;;;;;;;1999.90;999.90;;;15.60;53.20;;;;;;5025076;28;20029;-84
2024/04/07 04:21:33;;;;;;;1999.90;999.90;;;15.60;53.20;;;;;;5024177;28;20485;-85
2024/04/07 04:23:59;;;;;;;1999.90;999.90;;;15.60;53.00;;;;;;5026212;28;20041;-83
2024/04/07 04:26:27;;;;;;;1999.90;999.90;;;15.60;53.40;;;;;;5020754;28;20025;-84
2024/04/07 04:28:53;;;;;;;1999.90;999.90;;;15.40;54.00;;;;;;5025812;28;20033;-82
2024/04/07 04:31:19;;;;;;;1999.90;999.90;;;15.20;54.70;;;;;;5023219;28;20029;-85
2024/04/07 04:33:45;;;;;;;1999.90;999.90;;;15.30;54.60;;;;;;5022424;28;20440;-85
2024/04/07 04:36:16;;;;;;;1999.90;999.90;;;15.30;54.90;;;;;;5022465;28;20034;-86
2024/04/07 04:38:42;;;;;;;1999.90;999.90;;;15.20;55.20;;;;;;5022461;28;20783;-84
2024/04/07 04:41:08;;;;;;;1999.90;999.90;;;15.20;55.30;;;;;;5022842;28;20109;-83
2024/04/07 04:43:34;;;;;;;1999.90;999.90;;;15.20;55.30;;;;;;5023605;28;20264;-86
2024/04/07 04:46:13;;;;;;;1999.90;999.90;;;15.20;55.50;;;;;;5023956;28;20533;-85
2024/04/07 04:48:38;;;;;;;1999.90;999.90;;;15.30;55.50;;;;;;5023352;28;20391;-85
2024/04/07 04:51:04;;;;;;;1999.90;999.90;;;15.30;55.70;;;;;;5021337;28;20033;-84
2024/04/07 04:53:30;;;;;;;1999.90;999.90;;;15.40;55.40;;;;;;5021525;28;20790;-85
2024/04/07 04:56:02;;;;;;;1999.90;999.90;;;15.40;56.00;;;;;;5023021;28;20073;-86
2024/04/07 04:58:30;;;;;;;1999.90;999.90;;;15.30;55.10;;;;;;5021662;28;20507;-82
2024/04/07 05:00:56;;;;;;;1999.90;999.90;;;15.40;54.80;;;;;;5022533;28;20037;-84
2024/04/07 05:03:22;;;;;;;1999.90;999.90;;;15.40;54.60;;;;;;5023623;28;20079;-86
2024/04/07 05:05:47;;;;;;;1999.90;999.90;;;15.40;54.80;;;;;;5023911;28;20030;-84
2024/04/07 05:08:14;;;;;;;1999.90;999.90;;;15.30;55.40;;;;;;5024500;28;20033;-83
2024/04/07 05:10:39;;;;;;;1999.90;999.90;;;15.30;55.50;;;;;;5024663;28;20032;-83
2024/04/07 05:13:05;;;;;;;1999.90;999.90;;;15.30;55.30;;;;;;5022756;28;20037;-87
2024/04/07 05:15:31;;;;;;;1999.90;999.90;;;15.30;55.20;;;;;;5023876;28;20022;-84
2024/04/07 05:17:56;;;;;;;1999.90;999.90;;;15.30;55.40;;;;;;5027940;28;20025;-85
2024/04/07 05:20:22;;;;;;;1999.90;999.90;;;15.30;55.50;;;;;;5022321;28;20029;-81
2024/04/07 05:22:50;;;;;;;1999.90;999.90;;;15.30;55.40;;;;;;5022470;28;20052;-80
2024/04/07 05:25:16;;;;;;;1999.90;999.90;;;15.20;55.50;;;;;;5020871;28;20029;-82
2024/04/07 05:27:42;;;;;;;1999.90;999.90;;;15.20;55.60;;;;;;5024042;28;20063;-81
2024/04/07 05:30:10;;;;;;;1999.90;999.90;;;15.20;55.70;;;;;;5025223;28;20026;-86
2024/04/07 05:32:36;;;;;;;1999.90;999.90;;;15.30;55.70;;;;;;5022450;28;20039;-85
2024/04/07 05:35:04;;;;;;;1999.90;999.90;;;15.30;55.70;;;;;;5021671;28;20036;-84
2024/04/07 05:37:31;;;;;;;1999.90;999.90;;;15.30;55.50;;;;;;5020439;28;20049;-83
2024/04/07 05:39:56;;;;;;;1999.90;999.90;;;15.30;55.50;;;;;;5021594;28;20687;-85
2024/04/07 05:42:26;;;;;;;1999.90;999.90;;;15.30;55.40;;;;;;5022268;28;20037;-83
2024/04/07 05:44:52;;;;;;;1999.90;999.90;;;15.30;55.20;;;;;;5022120;28;20026;-82
2024/04/07 05:47:18;;;;;;;1999.90;999.90;;;15.30;55.40;;;;;;5021939;28;20516;-84
2024/04/07 05:49:44;;;;;;;1999.90;999.90;;;15.30;55.40;;;;;;5021237;28;20030;-84
2024/04/07 05:52:10;;;;;;;1999.90;999.90;;;15.30;55.10;;;;;;5019470;28;20037;-84
2024/04/07 05:54:35;;;;;;;1999.90;999.90;;;15.30;55.20;;;;;;5021634;28;20053;-86
2024/04/07 05:57:01;;;;;;;1999.90;999.90;;;15.40;55.30;;;;;;5021165;28;20059;-82
2024/04/07 05:59:27;;;;;;;1999.90;999.90;;;15.40;55.30;;;;;;5022067;28;20061;-85
2024/04/07 06:01:53;;;;;;;1999.90;999.90;;;15.40;55.30;;;;;;5021483;28;20033;-82
2024/04/07 06:04:19;;;;;;;1999.90;999.90;;;15.50;55.30;;;;;;5021965;28;20061;-86
2024/04/07 06:06:47;;;;;;;1999.90;999.90;;;15.50;55.20;;;;;;5021279;28;20124;-85
2024/04/07 06:09:14;;;;;;;1999.90;999.90;;;15.50;55.30;;;;;;5010461;28;20108;-84
2024/04/07 06:11:40;;;;;;;1999.90;999.90;;;15.60;55.30;;;;;;5021113;28;20496;-83
2024/04/07 06:14:05;;;;;;;1999.90;999.90;;;15.60;55.30;;;;;;5021337;28;20097;-83
2024/04/07 06:16:31;;;;;;;1999.90;999.90;;;15.60;55.70;;;;;;5021360;28;20508;-82
2024/04/07 06:18:57;;;;;;;1999.90;999.90;;;15.50;56.00;;;;;;5021594;28;20487;-81
2024/04/07 06:21:22;;;;;;;1999.90;999.90;;;15.50;56.00;;;;;;5020835;28;20057;-82
2024/04/07 06:23:48;;;;;;;1999.90;999.90;;;15.30;56.30;;;;;;5021112;28;20025;-81
2024/04/07 06:26:14;;;;;;;1999.90;999.90;;;15.30;57.30;;;;;;5017369;28;20037;-83
2024/04/07 06:28:40;;;;;;;1999.90;999.90;;;15.30;57.80;;;;;;5022787;28;20049;-82
2024/04/07 06:31:06;;;;;;;1999.90;999.90;;;15.20;59.00;;;;;;5021539;28;20117;-84
2024/04/07 06:33:32;;;;;;;1999.90;999.90;;;15.30;57.80;;;;;;5020772;28;20096;-84
2024/04/07 06:35:58;;;;;;;1999.90;999.90;;;15.40;57.10;;;;;;5019931;28;21045;-82
2024/04/07 06:38:24;;;;;;;1999.90;999.90;;;15.40;57.00;;;;;;5021088;28;20396;-83
2024/04/07 06:40:50;;;;;;;1999.90;999.90;;;15.30;57.20;;;;;;5019369;28;20029;-85
2024/04/07 06:43:16;;;;;;;1999.90;999.90;;;15.30;57.30;;;;;;5020852;28;20045;-82
2024/04/07 06:45:42;;;;;;;1999.90;999.90;;;15.30;57.90;;;;;;5021373;28;20033;-83
2024/04/07 06:48:07;;;;;;;1999.90;999.90;;;15.10;60.40;;;;;;5027090;28;20762;-84
2024/04/07 06:50:33;;;;;;;1999.90;999.90;;;15.10;59.50;;;;;;5025019;28;20048;-81
2024/04/07 06:52:59;;;;;;;1999.90;999.90;;;15.10;59.70;;;;;;5029611;28;20045;-82
2024/04/07 06:55:25;;;;;;;1999.90;999.90;;;15.20;59.60;;;;;;5024095;28;20057;-80
2024/04/07 06:57:50;;;;;;;1999.90;999.90;;;15.30;59.20;;;;;;5024578;28;20704;-84
2024/04/07 07:00:16;;;;;;;1999.90;999.90;;;15.30;60.50;;;;;;5025986;28;20572;-83
2024/04/07 07:02:42;;;;;;;1999.90;999.90;;;15.50;59.40;;;;;;5025661;28;20037;-79
2024/04/07 07:05:09;;;;;;;1999.90;999.90;;;15.70;59.00;;;;;;5024143;28;20272;-82
2024/04/07 07:07:35;;;;;;;1999.90;999.90;;;15.90;58.30;;;;;;5024800;28;20112;-82
2024/04/07 07:10:03;;;;;;;1999.90;999.90;;;15.90;57.90;;;;;;5026340;28;20025;-83
2024/04/07 07:12:29;;;;;;;1999.90;999.90;;;16.10;57.40;;;;;;5025696;28;20033;-84
2024/04/07 07:14:54;;;;;;;1999.90;999.90;;;16.20;56.70;;;;;;5024283;28;20108;-83
2024/04/07 07:17:20;;;;;;;1999.90;999.90;;;16.30;56.10;;;;;;5026195;28;20052;-84
2024/04/07 07:19:46;;;;;;;1999.90;999.90;;;16.30;56.00;;;;;;5024348;28;20454;-83
2024/04/07 07:22:11;;;;;;;1999.90;999.90;;;16.40;56.20;;;;;;5024793;28;20119;-86
2024/04/07 07:24:37;;;;;;;1999.90;999.90;;;16.40;56.70;;;;;;5023216;28;20746;-84
2024/04/07 07:27:03;;;;;;;1999.90;999.90;;;16.60;57.10;;;;;;5024125;28;20576;-86
2024/04/07 07:29:28;;;;;;;1999.90;999.90;;;16.60;58.00;;;;;;5026662;28;20038;-85
2024/04/07 07:31:56;;;;;;;1999.90;999.90;;;16.50;58.60;;;;;;5024343;28;20026;-82
2024/04/07 07:34:25;;;;;;;1999.90;999.90;;;16.60;59.40;;;;;;5024021;28;20037;-81
2024/04/07 07:36:52;;;;;;;1999.90;999.90;;;16.70;59.70;;;;;;5024019;28;20392;-85
2024/04/07 07:39:18;;;;;;;1999.90;999.90;;;16.80;59.00;;;;;;5024170;28;20041;-83
2024/04/07 07:41:44;;;;;;;1999.90;999.90;;;16.70;59.80;;;;;;5022959;28;20033;-81
2024/04/07 07:44:10;;;;;;;1999.90;999.90;;;16.70;59.30;;;;;;5023030;28;20025;-82
2024/04/07 07:46:36;;;;;;;1999.90;999.90;;;16.70;60.70;;;;;;5023656;28;20094;-80
2024/04/07 07:49:01;;;;;;;1999.90;999.90;;;16.80;59.00;;;;;;5020308;28;20059;-82
2024/04/07 07:51:28;;;;;;;1999.90;999.90;;;16.90;58.80;;;;;;5022930;28;20104;-83
2024/04/07 07:53:54;;;;;;;1999.90;999.90;;;17.00;59.30;;;;;;5019420;28;20734;-84
2024/04/07 07:56:20;;;;;;;1999.90;999.90;;;17.00;59.50;;;;;;5018935;28;20452;-80
2024/04/07 07:58:46;;;;;;;1999.90;999.90;;;17.00;59.20;;;;;;5022895;28;20045;-82
2024/04/07 08:01:12;;;;;;;1999.90;999.90;;;17.00;58.30;;;;;;5023912;28;20122;-83
2024/04/07 08:03:37;;;;;;;1999.90;999.90;;;17.10;58.30;;;;;;5024040;28;20026;-82
2024/04/07 08:06:03;;;;;;;1999.90;999.90;;;17.10;59.00;;;;;;5023139;28;20100;-80
2024/04/07 08:08:29;;;;;;;1999.90;999.90;;;17.20;59.20;;;;;;5020951;28;20032;-79
2024/04/07 08:10:57;;;;;;;1999.90;999.90;;;17.30;58.70;;;;;;5019927;28;20342;-86
2024/04/07 08:13:22;;;;;;;1999.90;999.90;;;17.20;57.70;;;;;;5026558;28;20161;-81
2024/04/07 08:15:48;;;;;;;1999.90;999.90;;;17.10;58.30;;;;;;5024640;28;20033;-83
2024/04/07 08:18:14;;;;;;;1999.90;999.90;;;17.30;57.70;;;;;;5025443;28;20037;-84
2024/04/07 08:20:41;;;;;;;1999.90;999.90;;;17.30;57.20;;;;;;5026403;28;20393;-83
2024/04/07 08:23:07;;;;;;;1999.90;999.90;;;17.40;56.90;;;;;;5027809;28;20112;-83
2024/04/07 08:25:33;;;;;;;1999.90;999.90;;;17.40;57.90;;;;;;5031459;28;20812;-81
2024/04/07 08:28:00;;;;;;;1999.90;999.90;;;17.40;58.00;;;;;;5022426;28;20137;-84
2024/04/07 08:30:26;;;;;;;;;;;17.50;57.20;;;;;;5026715;28;20134;-79
2024/04/07 08:32:52;;;;;;;1999.90;999.90;;;17.60;58.10;;;;;;5022525;28;20342;-83
2024/04/07 08:35:18;;;;;;;1999.90;999.90;;;17.60;58.50;;;;;;5021375;28;20034;-82
2024/04/07 08:37:43;;;;;;;1999.90;999.90;;;17.70;59.90;;;;;;5021755;28;20060;-80
2024/04/07 08:40:09;;;;;;;1999.90;999.90;;;17.70;58.40;;;;;;5022957;28;20025;-82
2024/04/07 08:42:36;;;;;;;1999.90;999.90;;;17.90;59.50;;;;;;5020478;28;20114;-82
2024/04/07 08:45:03;;;;;;;1999.90;999.90;;;18.00;61.40;;;;;;5024861;28;20029;-81
2024/04/07 08:47:30;;;;;;;1999.90;999.90;;;18.10;59.30;;;;;;5021824;28;20084;-83
2024/04/07 08:49:55;;;;;;;;;;;18.20;58.60;;;;;;5022435;28;20036;-82
2024/04/07 08:52:22;;;;;;;1999.90;999.90;;;18.20;57.60;;;;;;5022414;28;19913;-83
2024/04/07 08:54:49;;;;;;;1999.90;999.90;;;18.30;57.00;;;;;;5020436;28;20037;-81
2024/04/07 08:57:15;;;;;;;1999.90;999.90;;;18.40;57.20;;;;;;5020502;28;20064;-80
2024/04/07 08:59:41;;;;;;;1999.90;999.90;;;18.50;56.50;;;;;;5022756;28;20045;-81
2024/04/07 09:02:12;;;;;;;1999.90;999.90;;;18.40;58.00;;;;;;5023299;28;20108;-80
2024/04/07 09:04:40;;;;;;;1999.90;999.90;;;18.50;57.10;;;;;;5023596;28;20053;-81
2024/04/07 09:07:05;;;;;;;1999.90;999.90;;;18.60;59.10;;;;;;5022670;28;20567;-81
2024/04/07 09:09:31;;;;;;;1999.90;999.90;;;18.60;58.00;;;;;;5022283;28;20033;-80
2024/04/07 09:11:59;;;;;;;1999.90;999.90;;;18.60;59.90;;;;;;5021543;28;20447;-80
2024/04/07 09:14:26;;;;;;;1999.90;999.90;;;18.60;59.30;;;;;;5021873;28;20036;-81
2024/04/07 09:17:01;;;;;;;;;;;18.70;59.00;;;;;;5013883;28;20052;-81
2024/04/07 09:19:30;;;;;;;1999.90;999.90;;;18.80;58.80;;;;;;5022724;28;20299;-81
2024/04/07 09:21:55;;;;;;;1999.90;999.90;;;18.80;59.00;;;;;;5023024;28;20471;-80
2024/04/07 09:24:21;;;;;;;1999.90;999.90;;;18.80;58.20;;;;;;5019515;28;20040;-81
2024/04/07 09:26:47;;;;;;;1999.90;999.90;;;19.00;56.30;;;;;;5022825;28;20057;-79
2024/04/07 09:29:13;;;;;;;1999.90;999.90;;;19.10;56.20;;;;;;5022959;28;20750;-81
2024/04/07 09:31:38;;;;;;;1999.90;999.90;;;19.40;55.20;;;;;;5029298;28;20029;-80
2024/04/07 09:34:04;;;;;;;1999.90;999.90;;;19.90;54.30;;;;;;5024112;28;20025;-80
2024/04/07 09:36:31;;;;;;;1999.90;999.90;;;20.40;54.90;;;;;;5020059;28;20021;-80
2024/04/07 09:38:56;;;;;;;1999.90;999.90;;;20.60;52.20;;;;;;5022631;28;20033;-81
2024/04/07 09:41:24;;;;;;;1999.90;999.90;;;20.60;51.40;;;;;;5024041;28;20025;-82
2024/04/07 09:43:52;;;;;;;1999.90;999.90;;;20.60;52.50;;;;;;5022328;28;20013;-82
2024/04/07 09:46:22;;;;;;;1999.90;999.90;;;20.50;48.80;;;;;;5022134;28;20040;-81
2024/04/07 09:48:56;;;;;;;1999.90;999.90;;;20.70;47.30;;;;;;5020586;28;20080;-79
2024/04/07 09:51:22;;;;;;;1999.90;999.90;;;21.20;48.40;;;;;;5015525;28;20038;-76
2024/04/07 09:53:56;;;;;;;1999.90;999.90;;;21.40;47.60;;;;;;5023263;28;20079;-75
2024/04/07 09:56:28;;;;;;;1999.90;999.90;;;21.40;47.50;;;;;;5021076;28;20049;-76
2024/04/07 09:58:54;;;;;;;1999.90;999.90;;;21.20;48.20;;;;;;5023947;28;20068;-76
2024/04/07 10:01:21;;;;;;;1999.90;999.90;;;21.30;48.30;;;;;;5021832;28;20037;-75
2024/04/07 10:03:51;;;;;;;1999.90;999.90;;;21.80;47.40;;;;;;5021527;28;20523;-75
2024/04/07 10:06:18;;;;;;;1999.90;999.90;;;22.10;45.70;;;;;;5022657;28;20059;-75
2024/04/07 10:08:45;;;;;;;1999.90;999.90;;;22.10;44.20;;;;;;5023131;28;20026;-75
2024/04/07 10:11:17;;;;;;;1999.90;999.90;;;21.70;44.70;;;;;;5023037;28;20025;-75
2024/04/07 10:13:44;;;;;;;1999.90;999.90;;;21.50;45.50;;;;;;5019215;28;20164;-75
2024/04/07 10:16:10;;;;;;;1999.90;999.90;;;21.60;45.70;;;;;;5053614;28;20030;-75
2024/04/07 10:18:38;;;;;;;1999.90;999.90;;;21.90;45.80;;;;;;5023005;28;20058;-75
2024/04/07 10:21:07;;;;;;;1999.90;999.90;;;21.90;45.80;;;;;;5023031;28;20045;-75
2024/04/07 10:23:35;;;;;;;1999.90;999.90;;;21.70;44.40;;;;;;5017701;28;20029;-75
2024/04/07 10:26:06;;;;;;;1999.90;999.90;;;21.40;45.30;;;;;;5024434;28;20056;-75
2024/04/07 10:28:55;;;;;;;1999.90;999.90;;;21.40;45.90;;;;;;5020447;28;20105;-75
2024/04/07 10:31:32;;;;;;;1999.90;999.90;;;21.30;45.30;;;;;;5025535;28;20021;-75
2024/04/07 10:33:58;;;;;;;1999.90;999.90;;;21.40;45.60;;;;;;5018794;28;20045;-75
2024/04/07 10:36:25;;;;;;;1999.90;999.90;;;21.70;45.70;;;;;;5024173;28;20037;-75
2024/04/07 10:38:57;;;;;;;1999.90;999.90;;;21.80;45.00;;;;;;5024446;28;20044;-75
2024/04/07 10:41:24;;;;;;;1999.90;999.90;;;21.80;45.30;;;;;;5021685;28;20096;-76
2024/04/07 10:43:50;;;;;;;1999.90;999.90;;;21.60;45.50;;;;;;5024724;28;20033;-75
2024/04/07 10:46:17;;;;;;;1999.90;999.90;;;21.70;44.70;;;;;;5025287;28;20056;-75
2024/04/07 10:48:43;;;;;;;1999.90;999.90;;;21.50;45.10;;;;;;5025628;28;20043;-75
2024/04/07 10:51:09;;;;;;;1999.90;999.90;;;21.60;45.10;;;;;;5029979;28;20037;-76
2024/04/07 10:53:36;;;;;;;1999.90;999.90;;;21.60;43.80;;;;;;5024145;28;20122;-76
2024/04/07 10:56:02;;;;;;;1999.90;999.90;;;21.70;43.10;;;;;;5024876;28;20049;-76
2024/04/07 10:58:28;;;;;;;1999.90;999.90;;;21.80;43.10;;;;;;5014558;28;20033;-75
2024/04/07 11:00:53;;;;;;;1999.90;999.90;;;21.70;43.30;;;;;;5024403;28;20057;-75
2024/04/07 11:03:20;;;;;;;1999.90;999.90;;;21.70;43.20;;;;;;5025350;28;20047;-75
2024/04/07 11:05:46;;;;;;;1999.90;999.90;;;21.70;41.50;;;;;;5025416;28;20033;-75
2024/04/07 11:08:12;;;;;;;1999.90;999.90;;;21.80;41.30;;;;;;5024181;28;20025;-75
2024/04/07 11:10:38;;;;;;;1999.90;999.90;;;21.80;41.70;;;;;;5023395;28;20029;-75
2024/04/07 11:13:06;;;;;;;1999.90;999.90;;;22.00;40.70;;;;;;5024359;28;20037;-74
2024/04/07 11:15:32;;;;;;;1999.90;999.90;;;21.90;41.40;;;;;;5022762;28;20048;-75
2024/04/07 11:17:58;;;;;;;1999.90;999.90;;;22.00;41.30;;;;;;5023366;28;20044;-76
2024/04/07 11:20:24;;;;;;;1999.90;999.90;;;22.10;42.60;;;;;;5022500;28;20040;-76
2024/04/07 11:22:50;;;;;;;1999.90;999.90;;;22.40;41.10;;;;;;5022737;28;20033;-76
2024/04/07 11:25:16;;;;;;;1999.90;999.90;;;22.00;41.30;;;;;;5027267;28;20060;-76
2024/04/07 11:27:43;;;;;;;1999.90;999.90;;;21.90;40.80;;;;;;5023115;28;20739;-76
2024/04/07 11:30:09;;;;;;;1999.90;999.90;;;21.90;40.60;;;;;;5027321;28;20037;-76
2024/04/07 11:32:38;;;;;;;;;;;21.60;41.30;;;;;;5024657;28;20094;-76
2024/04/07 11:35:05;;;;;;;1999.90;999.90;;;21.60;41.40;;;;;;5023927;28;19916;-76
2024/04/07 11:37:31;;;;;;;1999.90;999.90;;;21.50;42.50;;;;;;5024869;28;20025;-77
2024/04/07 11:39:57;;;;;;;1999.90;999.90;;;21.50;41.40;;;;;;5027567;28;20021;-76
2024/04/07 11:42:24;;;;;;;1999.90;999.90;;;21.50;42.00;;;;;;5023747;28;20062;-76
2024/04/07 11:44:50;;;;;;;1999.90;999.90;;;21.60;42.60;;;;;;5024500;28;20639;-76
2024/04/07 11:47:16;;;;;;;1999.90;999.90;;;21.70;42.20;;;;;;5024582;28;20021;-76
2024/04/07 11:49:43;;;;;;;;;;;21.60;41.40;;;;;;5025126;28;20033;-76
2024/04/07 11:52:09;;;;;;;1999.90;999.90;;;21.40;42.10;;;;;;5024324;28;19909;-76
2024/04/07 11:54:34;;;;;;;1999.90;999.90;;;21.50;42.70;;;;;;5024594;28;20045;-76
2024/04/07 11:57:00;;;;;;;1999.90;999.90;;;21.50;42.20;;;;;;5024431;28;20720;-75
2024/04/07 11:59:26;;;;;;;1999.90;999.90;;;21.50;41.90;;;;;;5024922;28;20839;-75
2024/04/07 12:01:51;;;;;;;1999.90;999.90;;;21.30;40.80;;;;;;5024760;28;20106;-75